GMAD/AGA METAR and TAF weather

Enter ICAO airport designator
Station Type Date Time Source
GMAD METAR 2020/09/21 05:00 UTC NOAA

GMAD 210500Z 00000KT 9999 FEW006 17/13 Q1013 NOSIG


Station Type Date Time Source
GMAD Decoded METAR 2020/09/21 05:00 UTC NOAA

Agadir Al Massira, Morocco (GMAD) 30-20N 009-24W 74M
Sep 21, 2020 - 01:00 AM EDT / 2020.09.21 0500 UTC
Wind: Calm:0
Visibility: greater than 7 mile(s):0
Sky conditions: mostly clear
Temperature: 62 F (17 C)
Dew Point: 55 F (13 C)
Relative Humidity: 77%
Pressure (altimeter): 29.91 in. Hg (1013 hPa)
ob: GMAD 210500Z 00000KT 9999 FEW006 17/13 Q1013 NOSIG
cycle: 5

Station Type Date Time Source
GMAD TAF 2020/09/20 18:18 UTC NOAA

TAF TAF GMAD 201700Z 2018/2124 20008KT CAVOK
TEMPO 2105/2108 3000 BR SCT010

Example: see airport list